createdAt,value
2022-11-28T00:01:19.823Z,29.38
2022-11-28T00:03:47.193Z,30.27
2022-11-28T00:06:14.371Z,31.08
2022-11-28T00:08:41.527Z,35.72
2022-11-28T00:11:10.301Z,30.27
2022-11-28T00:13:37.864Z,34.28
2022-11-28T00:16:07.601Z,32.38
2022-11-28T00:18:35.131Z,31.45
2022-11-28T00:21:07.759Z,33.25
2022-11-28T00:23:34.580Z,30.65
2022-11-28T00:26:04.212Z,32.13
2022-11-28T00:28:31.074Z,30.80
2022-11-28T00:30:58.164Z,26.55
2022-11-28T00:33:25.268Z,30.83
2022-11-28T00:35:52.097Z,32.67
2022-11-28T00:40:45.388Z,29.33
2022-11-28T00:43:12.998Z,30.77
2022-11-28T00:45:39.807Z,31.25
2022-11-28T00:50:33.162Z,35.55
2022-11-28T00:53:00.234Z,33.30
2022-11-28T00:55:27.219Z,31.85
2022-11-28T01:00:22.155Z,34.97
2022-11-28T01:05:15.569Z,30.48
2022-11-28T01:07:42.385Z,29.05
2022-11-28T01:10:11.405Z,35.25
2022-11-28T01:12:39.958Z,36.42
2022-11-28T01:15:09.343Z,32.40
2022-11-28T01:17:36.435Z,33.53
2022-11-28T01:20:05.244Z,33.65
2022-11-28T01:22:32.225Z,30.55
2022-11-28T01:24:58.908Z,35.95
2022-11-28T01:27:25.612Z,34.63
2022-11-28T01:29:52.508Z,41.08
2022-11-28T01:32:19.182Z,39.50
2022-11-28T01:34:45.815Z,36.70
2022-11-28T01:37:12.614Z,37.15
2022-11-28T01:42:05.868Z,38.25
2022-11-28T01:44:32.664Z,40.80
2022-11-28T01:46:59.320Z,37.88
2022-11-28T01:49:30.577Z,35.88
2022-11-28T01:52:03.327Z,31.95
2022-11-28T01:54:31.872Z,32.10
2022-11-28T01:57:02.914Z,29.58
2022-11-28T01:59:33.972Z,33.55
2022-11-28T02:02:02.126Z,32.65
2022-11-28T02:04:29.048Z,31.17
2022-11-28T02:09:22.712Z,30.55
2022-11-28T02:12:15.266Z,29.65
2022-11-28T02:15:03.282Z,40.05
2022-11-28T02:17:48.524Z,29.52
2022-11-28T02:20:53.109Z,26.05
2022-11-28T02:23:48.006Z,26.20
2022-11-28T02:26:23.627Z,34.88
2022-11-28T02:28:59.087Z,34.25
2022-11-28T02:32:03.346Z,36.03
2022-11-28T02:34:57.067Z,27.98
2022-11-28T02:37:45.349Z,30.98
2022-11-28T02:40:32.470Z,31.45
2022-11-28T02:43:10.157Z,31.98
2022-11-28T02:46:11.253Z,35.42
2022-11-28T02:48:56.126Z,27.35
2022-11-28T02:53:55.220Z,25.98
2022-11-28T02:56:24.423Z,30.05
2022-11-28T02:58:51.536Z,31.17
2022-11-28T03:01:27.720Z,28.70
2022-11-28T03:03:54.530Z,27.20
2022-11-28T03:06:27.298Z,23.83
2022-11-28T03:09:13.910Z,24.63
2022-11-28T03:12:18.405Z,24.48
2022-11-28T03:14:52.508Z,28.08
2022-11-28T03:17:26.604Z,24.33
2022-11-28T03:20:13.304Z,31.83
2022-11-28T03:23:16.406Z,26.08
2022-11-28T03:26:00.507Z,24.90
2022-11-28T03:28:47.224Z,21.35
2022-11-28T03:31:24.544Z,24.52
2022-11-28T03:33:55.798Z,22.75
2022-11-28T03:36:27.824Z,27.52
2022-11-28T03:39:00.908Z,23.92
2022-11-28T03:42:04.992Z,24.55
2022-11-28T03:44:44.647Z,23.52
2022-11-28T03:47:11.846Z,25.40
2022-11-28T03:52:12.179Z,23.70
2022-11-28T03:54:41.924Z,22.15
2022-11-28T03:57:19.670Z,25.85
2022-11-28T03:59:54.146Z,29.38
2022-11-28T04:02:30.995Z,30.13
2022-11-28T04:05:09.105Z,30.90
2022-11-28T04:07:42.929Z,28.10
2022-11-28T04:10:26.652Z,37.95
2022-11-28T04:12:57.318Z,35.78
2022-11-28T04:15:37.463Z,32.95
2022-11-28T04:18:10.226Z,28.92
2022-11-28T04:20:48.063Z,23.73
2022-11-28T04:23:18.279Z,27.02
2022-11-28T04:26:11.869Z,32.50
2022-11-28T04:28:40.737Z,27.75
2022-11-28T04:31:18.861Z,26.58
2022-11-28T04:33:50.711Z,20.80
2022-11-28T04:36:20.106Z,29.58
2022-11-28T04:38:56.089Z,28.73
2022-11-28T04:41:46.663Z,26.58
2022-11-28T04:44:33.242Z,22.65
2022-11-28T04:47:00.001Z,26.08
2022-11-28T04:49:29.207Z,25.30
2022-11-28T04:52:07.732Z,25.83
2022-11-28T04:54:46.904Z,31.92
2022-11-28T04:57:30.558Z,31.70
2022-11-28T04:59:58.305Z,24.65
2022-11-28T05:02:25.870Z,29.02
2022-11-28T05:04:55.911Z,28.10
2022-11-28T05:07:24.933Z,33.95
2022-11-28T05:09:51.874Z,29.35
2022-11-28T05:12:18.607Z,25.35
2022-11-28T05:14:45.378Z,25.90
2022-11-28T05:17:13.497Z,22.98
2022-11-28T05:19:40.195Z,22.65
2022-11-28T05:22:06.899Z,27.25
2022-11-28T05:24:33.617Z,24.35
2022-11-28T05:27:00.722Z,21.90
2022-11-28T05:29:27.406Z,25.65
2022-11-28T05:31:54.176Z,20.90
2022-11-28T05:34:21.027Z,27.38
2022-11-28T05:39:15.036Z,20.50
2022-11-28T05:41:41.651Z,25.88
2022-11-28T05:44:10.224Z,20.42
2022-11-28T05:46:36.845Z,23.25
2022-11-28T05:49:03.612Z,25.23
2022-11-28T05:53:56.832Z,22.88
2022-11-28T05:58:50.659Z,21.58
2022-11-28T06:01:24.399Z,25.55
2022-11-28T06:03:52.399Z,36.00
2022-11-28T06:06:21.789Z,34.33
2022-11-28T06:08:49.908Z,27.77
2022-11-28T06:11:17.068Z,29.17
2022-11-28T06:13:45.547Z,31.52
2022-11-28T06:16:16.974Z,32.47
2022-11-28T06:18:44.484Z,29.02
2022-11-28T06:21:12.753Z,29.98
2022-11-28T06:23:41.152Z,28.48
2022-11-28T06:26:11.436Z,30.10
2022-11-28T06:28:39.299Z,28.45
2022-11-28T06:31:13.961Z,33.65
2022-11-28T06:33:41.717Z,30.33
2022-11-28T06:36:10.498Z,28.25
2022-11-28T06:38:38.264Z,25.88
2022-11-28T06:41:11.411Z,25.45
2022-11-28T06:43:38.598Z,26.75
2022-11-28T06:46:05.426Z,26.83
2022-11-28T06:48:32.556Z,28.77
2022-11-28T06:51:04.521Z,29.02
2022-11-28T06:53:31.750Z,27.20
2022-11-28T06:55:58.699Z,29.30
2022-11-28T06:58:25.440Z,27.98
2022-11-28T07:00:52.148Z,24.92
2022-11-28T07:05:45.693Z,24.50
2022-11-28T07:08:12.384Z,23.80
2022-11-28T07:13:06.023Z,24.83
2022-11-28T07:15:32.695Z,28.20
2022-11-28T07:17:59.298Z,34.33
2022-11-28T07:20:25.910Z,24.65
2022-11-28T07:22:52.914Z,26.50
2022-11-28T07:25:19.684Z,26.95
2022-11-28T07:27:46.283Z,25.80
2022-11-28T07:30:13.351Z,24.17
2022-11-28T07:32:41.123Z,26.75
2022-11-28T07:35:09.038Z,26.80
2022-11-28T07:37:36.515Z,25.58
2022-11-28T07:40:04.277Z,31.98
2022-11-28T07:42:30.891Z,28.73
2022-11-28T07:45:04.279Z,28.58
2022-11-28T07:47:34.859Z,29.02
2022-11-28T07:50:01.541Z,30.17
2022-11-28T07:52:28.165Z,29.05
2022-11-28T07:54:55.240Z,27.42
2022-11-28T07:57:22.495Z,25.27
2022-11-28T07:59:49.119Z,27.92
2022-11-28T08:02:16.068Z,27.25
2022-11-28T08:04:48.599Z,22.90
2022-11-28T08:07:17.255Z,28.30
2022-11-28T08:12:12.261Z,23.05
2022-11-28T08:14:38.980Z,22.58
2022-11-28T08:17:05.685Z,26.70
2022-11-28T08:22:02.334Z,28.83
2022-11-28T08:26:55.439Z,25.33
2022-11-28T08:29:22.149Z,25.30
2022-11-28T08:31:48.792Z,28.40
2022-11-28T08:34:15.528Z,25.55
2022-11-28T08:36:43.533Z,28.20
2022-11-28T08:39:27.536Z,26.55
2022-11-28T08:41:59.878Z,26.98
2022-11-28T08:44:30.234Z,25.83
2022-11-28T08:46:57.314Z,32.65
2022-11-28T08:51:51.246Z,28.17
2022-11-28T08:54:17.861Z,26.13
2022-11-28T08:56:46.821Z,26.88
2022-11-28T08:59:13.779Z,32.28
2022-11-28T09:01:41.035Z,28.40
2022-11-28T09:04:07.966Z,27.20
2022-11-28T09:06:34.674Z,27.85
2022-11-28T09:09:03.008Z,22.40
2022-11-28T09:11:29.753Z,28.98
2022-11-28T09:16:23.562Z,21.48
2022-11-28T09:18:54.885Z,24.45
2022-11-28T09:21:21.753Z,21.45
2022-11-28T09:26:20.174Z,29.02
2022-11-28T09:28:48.223Z,24.48
2022-11-28T09:31:16.968Z,24.90
2022-11-28T09:33:44.265Z,29.80
2022-11-28T09:36:13.784Z,30.80
2022-11-28T09:38:40.500Z,26.15
2022-11-28T09:43:55.732Z,26.25
2022-11-28T09:46:28.792Z,24.52
2022-11-28T09:49:00.539Z,21.88
2022-11-28T09:51:55.347Z,22.67
2022-11-28T09:54:50.212Z,21.02
2022-11-28T09:57:29.782Z,21.13
2022-11-28T09:59:56.459Z,25.92
2022-11-28T10:05:20.656Z,21.50
2022-11-28T10:07:55.105Z,22.13
2022-11-28T10:10:31.138Z,26.40
2022-11-28T10:12:57.782Z,27.40
2022-11-28T10:15:33.597Z,22.15
2022-11-28T10:18:33.328Z,23.25
2022-11-28T10:21:12.922Z,24.30
2022-11-28T10:23:45.395Z,24.08
2022-11-28T10:26:25.707Z,23.25
2022-11-28T10:28:55.598Z,22.92
2022-11-28T10:31:33.575Z,22.60
2022-11-28T10:34:09.626Z,21.63
2022-11-28T10:37:02.370Z,22.10
2022-11-28T10:39:29.124Z,20.15
2022-11-28T10:42:11.903Z,21.98
2022-11-28T10:44:44.513Z,23.83
2022-11-28T10:47:20.129Z,25.83
2022-11-28T10:50:05.829Z,22.83
2022-11-28T10:52:49.618Z,25.90
2022-11-28T10:55:58.510Z,21.20
2022-11-28T10:58:37.124Z,22.52
2022-11-28T11:01:04.613Z,21.33
2022-11-28T11:03:35.784Z,26.15
2022-11-28T11:06:03.106Z,21.67
2022-11-28T11:08:34.970Z,24.98
2022-11-28T11:11:04.525Z,22.50
2022-11-28T11:13:55.641Z,18.60
2022-11-28T11:16:22.963Z,23.70
2022-11-28T11:18:49.547Z,23.67
2022-11-28T11:21:25.037Z,21.65
2022-11-28T11:24:27.050Z,20.33
2022-11-28T11:27:02.415Z,25.08
2022-11-28T11:29:29.102Z,23.13
2022-11-28T11:34:24.326Z,20.23
2022-11-28T11:36:51.717Z,19.88
2022-11-28T11:39:25.667Z,20.92
2022-11-28T11:42:11.518Z,21.67
2022-11-28T11:44:38.154Z,22.35
2022-11-28T11:49:37.227Z,20.20
2022-11-28T11:52:15.027Z,20.92
2022-11-28T11:54:58.458Z,19.58
2022-11-28T11:57:44.371Z,21.00
2022-11-28T12:00:20.998Z,24.77
2022-11-28T12:02:54.090Z,21.58
2022-11-28T12:05:28.458Z,24.20
2022-11-28T12:08:02.322Z,24.65
2022-11-28T12:10:34.651Z,20.88
2022-11-28T12:13:04.833Z,20.67
2022-11-28T12:15:45.423Z,23.80
2022-11-28T12:18:35.906Z,20.95
2022-11-28T12:21:19.071Z,22.77
2022-11-28T12:24:10.034Z,25.60
2022-11-28T12:26:43.071Z,21.58
2022-11-28T12:29:38.539Z,24.15
2022-11-28T12:32:36.294Z,24.02
2022-11-28T12:35:42.782Z,22.45
2022-11-28T12:38:24.788Z,24.42
2022-11-28T12:41:16.280Z,19.35
2022-11-28T12:43:57.957Z,22.85
2022-11-28T12:46:49.257Z,23.95
2022-11-28T12:49:22.978Z,22.48
2022-11-28T12:52:31.561Z,21.88
2022-11-28T12:55:04.244Z,21.85
2022-11-28T12:57:45.359Z,20.73
2022-11-28T13:00:25.250Z,20.70
2022-11-28T13:03:26.279Z,22.40
2022-11-28T13:06:05.138Z,18.38
2022-11-28T13:08:49.377Z,20.15
2022-11-28T13:11:22.125Z,22.67
2022-11-28T13:13:59.087Z,19.05
2022-11-28T13:16:48.101Z,24.73
2022-11-28T13:19:33.252Z,21.17
2022-11-28T13:22:23.443Z,23.30
2022-11-28T13:25:07.025Z,22.90
2022-11-28T13:27:56.699Z,25.80
2022-11-28T13:30:26.044Z,22.73
2022-11-28T13:33:16.718Z,20.58
2022-11-28T13:35:46.463Z,22.95
2022-11-28T13:38:42.533Z,19.02
2022-11-28T13:42:09.654Z,22.00
2022-11-28T13:44:49.883Z,18.77
2022-11-28T13:47:22.486Z,18.98
2022-11-28T13:49:49.613Z,20.92
2022-11-28T13:52:19.175Z,21.60
2022-11-28T13:54:53.855Z,24.60
2022-11-28T13:57:29.722Z,18.58
2022-11-28T14:00:06.897Z,20.45
2022-11-28T14:02:46.498Z,21.00
2022-11-28T14:05:37.176Z,17.90
2022-11-28T14:08:05.611Z,22.30
2022-11-28T14:10:49.585Z,19.35
2022-11-28T14:13:44.124Z,21.63
2022-11-28T14:16:54.517Z,22.13
2022-11-28T14:19:30.440Z,21.40
2022-11-28T14:22:22.405Z,18.50
2022-11-28T14:25:01.175Z,19.83
2022-11-28T14:30:07.655Z,19.00
2022-11-28T14:32:36.611Z,20.35
2022-11-28T14:35:06.788Z,20.40
2022-11-28T14:37:47.779Z,20.85
2022-11-28T14:40:53.394Z,21.75
2022-11-28T14:43:43.838Z,21.25
2022-11-28T14:46:22.254Z,19.10
2022-11-28T14:48:58.244Z,24.88
2022-11-28T14:52:00.039Z,23.50
2022-11-28T14:54:42.479Z,21.95
2022-11-28T14:59:43.956Z,20.88
2022-11-28T15:02:11.006Z,21.35
2022-11-28T15:07:50.221Z,21.60
2022-11-28T15:10:52.967Z,23.30
2022-11-28T15:15:51.900Z,23.33
2022-11-28T15:18:25.240Z,21.63
2022-11-28T15:21:03.277Z,26.58
2022-11-28T15:23:31.996Z,22.33
2022-11-28T15:26:00.210Z,20.42
2022-11-28T15:28:28.937Z,26.13
2022-11-28T15:30:57.680Z,24.25
2022-11-28T15:33:26.402Z,22.40
2022-11-28T15:36:20.858Z,24.20
2022-11-28T15:38:48.502Z,20.60
2022-11-28T15:41:21.249Z,25.67
2022-11-28T15:43:48.228Z,44.67
2022-11-28T15:46:21.037Z,29.50
2022-11-28T15:48:50.139Z,45.03
2022-11-28T15:51:32.693Z,28.92
2022-11-28T15:54:00.523Z,29.85
2022-11-28T15:56:27.466Z,24.23
2022-11-28T16:01:24.024Z,32.47
2022-11-28T16:03:59.642Z,28.83
2022-11-28T16:06:36.618Z,27.50
2022-11-28T16:09:29.470Z,30.00
2022-11-28T16:11:56.515Z,26.50
2022-11-28T16:14:40.558Z,26.83
2022-11-28T16:17:23.801Z,25.52
2022-11-28T16:19:53.974Z,27.70
2022-11-28T16:22:27.289Z,25.40
2022-11-28T16:24:55.995Z,25.65
2022-11-28T16:27:29.199Z,26.63
2022-11-28T16:29:56.378Z,26.42
2022-11-28T16:32:37.934Z,29.25
2022-11-28T16:35:06.111Z,26.17
2022-11-28T16:37:33.361Z,27.77
2022-11-28T16:40:06.777Z,37.08
2022-11-28T16:42:35.458Z,32.78
2022-11-28T16:45:21.220Z,33.35
2022-11-28T16:47:55.827Z,28.48
2022-11-28T16:50:23.940Z,27.10
2022-11-28T16:53:00.262Z,26.40
2022-11-28T16:55:38.242Z,24.17
2022-11-28T16:58:21.178Z,23.70
2022-11-28T17:00:59.340Z,22.90
2022-11-28T17:03:42.213Z,27.85
2022-11-28T17:06:18.239Z,30.45
2022-11-28T17:08:45.329Z,22.33
2022-11-28T17:11:13.791Z,22.92
2022-11-28T17:13:40.616Z,27.33
2022-11-28T17:16:16.218Z,25.23
2022-11-28T17:18:43.841Z,26.17
2022-11-28T17:21:12.417Z,24.35
2022-11-28T17:23:40.965Z,23.67
2022-11-28T17:26:08.534Z,23.75
2022-11-28T17:28:35.280Z,22.67
2022-11-28T17:33:28.590Z,22.65
2022-11-28T17:38:22.936Z,24.13
2022-11-28T17:43:18.279Z,25.65
2022-11-28T17:45:45.749Z,26.02
2022-11-28T17:48:18.999Z,22.35
2022-11-28T17:50:50.605Z,29.17
2022-11-28T17:53:19.603Z,22.67
2022-11-28T17:55:48.864Z,23.75
2022-11-28T17:58:23.936Z,23.02
2022-11-28T18:00:53.943Z,26.38
2022-11-28T18:03:29.241Z,24.13
2022-11-28T18:05:55.923Z,30.00
2022-11-28T18:08:22.911Z,38.67
2022-11-28T18:10:50.780Z,34.10
2022-11-28T18:13:18.059Z,30.75
2022-11-28T18:15:47.552Z,37.33
2022-11-28T18:18:15.551Z,27.75
2022-11-28T18:20:42.582Z,33.13
2022-11-28T18:25:41.686Z,28.27
2022-11-28T18:28:08.420Z,29.40
2022-11-28T18:30:35.107Z,23.92
2022-11-28T18:33:01.928Z,27.38
2022-11-28T18:35:28.636Z,28.75
2022-11-28T18:37:55.578Z,26.15
2022-11-28T18:42:48.838Z,31.60
2022-11-28T18:45:15.622Z,31.02
2022-11-28T18:47:42.547Z,31.27
2022-11-28T18:50:09.540Z,32.63
2022-11-28T18:52:36.303Z,31.27
2022-11-28T18:55:04.114Z,31.05
2022-11-28T18:57:34.709Z,30.67
2022-11-28T19:00:02.132Z,33.35
2022-11-28T19:02:29.460Z,32.78
2022-11-28T19:04:56.882Z,31.50
2022-11-28T19:07:24.873Z,41.00
2022-11-28T19:09:52.554Z,35.30
2022-11-28T19:12:20.372Z,35.10
2022-11-28T19:14:47.045Z,37.30
2022-11-28T19:17:14.184Z,35.80
2022-11-28T19:22:08.383Z,40.90
2022-11-28T19:24:35.202Z,34.65
2022-11-28T19:27:01.956Z,38.20
2022-11-28T19:29:28.531Z,36.92
2022-11-28T19:31:55.580Z,35.40
2022-11-28T19:34:23.064Z,38.95
2022-11-28T19:36:51.160Z,37.95
2022-11-28T19:39:19.858Z,42.20
2022-11-28T19:41:47.391Z,39.03
2022-11-28T19:44:14.980Z,36.58
2022-11-28T19:46:42.805Z,39.42
2022-11-28T19:49:19.337Z,40.55
2022-11-28T19:51:47.171Z,35.50
2022-11-28T19:54:15.247Z,38.78
2022-11-28T19:56:42.193Z,38.60
2022-11-28T19:59:10.635Z,41.58
2022-11-28T20:01:38.958Z,43.47
2022-11-28T20:04:06.018Z,40.97
2022-11-28T20:06:34.106Z,41.75
2022-11-28T20:09:07.333Z,39.58
2022-11-28T20:11:37.740Z,45.08
2022-11-28T20:14:06.969Z,106.57
2022-11-28T20:16:35.835Z,77.60
2022-11-28T20:19:05.817Z,86.43
2022-11-28T20:21:34.264Z,85.85
2022-11-28T20:24:07.343Z,93.07
2022-11-28T20:26:38.831Z,67.80
2022-11-28T20:29:06.249Z,58.45
2022-11-28T20:31:42.056Z,51.13
2022-11-28T20:34:08.945Z,44.53
2022-11-28T20:39:04.658Z,45.30
2022-11-28T20:41:31.324Z,48.35
2022-11-28T20:44:01.946Z,48.13
2022-11-28T20:46:31.023Z,40.53
2022-11-28T20:48:59.886Z,41.70
2022-11-28T20:51:28.913Z,38.70
2022-11-28T20:53:57.989Z,38.60
2022-11-28T20:56:27.814Z,41.72
2022-11-28T20:58:54.700Z,43.58
2022-11-28T21:01:24.707Z,42.70
2022-11-28T21:03:52.403Z,45.45
2022-11-28T21:06:19.641Z,46.50
2022-11-28T21:08:46.757Z,43.53
2022-11-28T21:11:30.976Z,47.28
2022-11-28T21:14:04.949Z,42.13
2022-11-28T21:16:33.286Z,47.40
2022-11-28T21:19:07.633Z,39.53
2022-11-28T21:21:37.184Z,47.55
2022-11-28T21:24:12.547Z,37.83
2022-11-28T21:26:53.859Z,40.97
2022-11-28T21:29:22.208Z,34.95
2022-11-28T21:31:49.094Z,42.88
2022-11-28T21:34:16.758Z,37.50
2022-11-28T21:36:44.192Z,39.10
2022-11-28T21:39:14.042Z,41.22
2022-11-28T21:41:40.996Z,41.38
2022-11-28T21:44:08.193Z,52.10
2022-11-28T21:49:01.984Z,41.70
2022-11-28T21:51:28.845Z,41.72
2022-11-28T21:53:57.598Z,39.10
2022-11-28T21:56:24.991Z,37.63
2022-11-28T21:58:52.428Z,40.55
2022-11-28T22:01:20.353Z,41.33
2022-11-28T22:03:49.116Z,43.67
2022-11-28T22:06:21.842Z,41.78
2022-11-28T22:08:49.132Z,36.78
2022-11-28T22:11:16.521Z,39.45
2022-11-28T22:13:47.168Z,43.15
2022-11-28T22:16:18.809Z,38.70
2022-11-28T22:18:47.383Z,37.47
2022-11-28T22:21:49.977Z,37.78
2022-11-28T22:24:03.330Z,38.83
2022-11-28T22:26:30.045Z,39.78
2022-11-28T22:28:58.905Z,36.33
2022-11-28T22:31:25.909Z,36.22
2022-11-28T22:33:52.864Z,35.00
2022-11-28T22:36:21.579Z,39.60
2022-11-28T22:38:49.540Z,32.03
2022-11-28T22:41:27.625Z,36.15
2022-11-28T22:43:57.312Z,34.17
2022-11-28T22:46:24.353Z,30.80
2022-11-28T22:48:51.947Z,33.70
2022-11-28T22:51:21.822Z,32.35
2022-11-28T22:53:52.834Z,37.25
2022-11-28T22:56:19.538Z,32.28
2022-11-28T22:58:46.583Z,29.70
2022-11-28T23:01:17.396Z,29.17
2022-11-28T23:03:45.448Z,30.80
2022-11-28T23:06:19.382Z,31.73
2022-11-28T23:08:46.817Z,29.42
2022-11-28T23:11:17.722Z,30.00
2022-11-28T23:13:45.526Z,29.02
2022-11-28T23:16:28.079Z,30.10
2022-11-28T23:18:58.078Z,36.90
2022-11-28T23:21:28.344Z,21.42
2022-11-28T23:23:55.564Z,29.77
2022-11-28T23:26:24.902Z,27.00
2022-11-28T23:28:53.527Z,27.10
2022-11-28T23:31:23.249Z,33.05
2022-11-28T23:33:50.676Z,29.80
2022-11-28T23:36:29.830Z,33.95
2022-11-28T23:39:01.061Z,27.38
2022-11-28T23:41:29.794Z,30.85
2022-11-28T23:43:57.214Z,30.30
2022-11-28T23:46:25.101Z,30.27
2022-11-28T23:48:52.168Z,33.15
2022-11-28T23:51:21.895Z,26.13
2022-11-28T23:53:50.000Z,22.65
2022-11-28T23:56:23.148Z,18.70
2022-11-28T23:58:50.983Z,29.80
